Time;durP1;ratioP1;P1;durP2;ratioP2;P2;SDS_P1;SDS_P2;PMS_P1;PMS_P2;Temp;Humidity;BMP_temperature;BMP_pressure;BME280_temperature;BME280_humidity;BME280_pressure;Samples;Min_cycle;Max_cycle;Signal;HPM_P1;HPM_P2
2021/05/20 00:02:08;;;;;;;;;;;10.50;91.80;;;;;;5082028;28;19915;-84
2021/05/20 00:04:34;;;;;;;;;;;10.50;92.00;;;;;;5083818;28;19905;-84
2021/05/20 00:06:59;;;;;;;;;;;10.50;92.30;;;;;;5081301;28;20296;-84
2021/05/20 00:09:25;;;;;;;;;;;10.50;92.50;;;;;;5070570;28;19916;-83
2021/05/20 00:11:50;;;;;;;;;;;10.50;92.80;;;;;;5082148;28;20322;-83
2021/05/20 00:14:15;;;;;;;;;;;10.50;93.00;;;;;;5081859;28;19916;-84
2021/05/20 00:16:41;;;;;;;;;;;10.40;93.30;;;;;;5078635;28;19908;-84
2021/05/20 00:19:07;;;;;;;;;;;10.40;93.60;;;;;;5066657;28;20599;-84
2021/05/20 00:21:33;;;;;;;;;;;10.40;93.80;;;;;;5084304;28;20415;-84
2021/05/20 00:23:59;;;;;;;;;;;10.40;94.00;;;;;;5078501;28;19916;-84
2021/05/20 00:26:24;;;;;;;;;;;10.40;94.30;;;;;;5087175;28;19951;-84
2021/05/20 00:40:43;;;;;;;;;;;10.20;95.90;;;;;;5079773;28;19919;-84
2021/05/20 00:43:09;;;;;;;;;;;10.20;96.30;;;;;;5076281;28;19913;-83
2021/05/20 00:45:34;;;;;;;;;;;10.20;96.60;;;;;;5077746;28;19962;-84
2021/05/20 00:48:00;;;;;;;;;;;10.20;96.90;;;;;;5059896;28;19924;-84
2021/05/20 00:50:27;;;;;;;;;;;10.20;97.20;;;;;;5073789;28;19952;-83
2021/05/20 00:52:53;;;;;;;;;;;10.20;97.40;;;;;;5075621;28;19916;-83
2021/05/20 00:55:20;;;;;;;;;;;10.20;97.70;;;;;;5084626;28;20335;-84
2021/05/20 00:57:47;;;;;;;;;;;10.30;98.00;;;;;;5079640;28;20288;-84
2021/05/20 01:00:13;;;;;;;;;;;10.30;98.20;;;;;;5077432;28;19952;-84
2021/05/20 01:02:40;;;;;;;;;;;10.30;98.40;;;;;;5083914;28;20330;-85
2021/05/20 01:05:06;;;;;;;;;;;10.30;98.60;;;;;;5086637;28;19942;-84
2021/05/20 01:07:32;;;;;;;;;;;10.40;98.90;;;;;;5079874;28;19923;-84
2021/05/20 01:09:58;;;;;;;;;;;10.40;99.10;;;;;;5088950;28;19901;-84
2021/05/20 01:12:26;;;;;;;;;;;10.40;99.40;;;;;;5090982;28;19916;-84
2021/05/20 01:14:51;;;;;;;;;;;10.40;99.60;;;;;;5085859;28;19917;-84
2021/05/20 01:17:17;;;;;;;;;;;10.40;99.90;;;;;;5084195;28;19919;-84
2021/05/20 01:19:43;;;;;;;;;;;10.40;99.90;;;;;;5085908;28;19954;-84
2021/05/20 01:22:09;;;;;;;;;;;10.40;99.90;;;;;;5081460;28;19999;-83
2021/05/20 01:24:34;;;;;;;;;;;10.40;99.90;;;;;;5072624;28;19912;-84
2021/05/20 01:27:04;;;;;;;;;;;10.40;99.90;;;;;;5083239;28;20261;-84
2021/05/20 01:29:29;;;;;;;;;;;10.40;99.90;;;;;;5067476;28;20015;-84
2021/05/20 01:31:55;;;;;;;;;;;10.40;99.90;;;;;;5083489;28;19908;-84
2021/05/20 01:34:21;;;;;;;;;;;10.30;99.90;;;;;;5083681;28;20392;-85
2021/05/20 01:36:46;;;;;;;;;;;10.30;99.90;;;;;;5084491;28;19924;-84
2021/05/20 01:39:12;;;;;;;;;;;10.20;99.90;;;;;;5082582;28;20400;-85
2021/05/20 01:41:37;;;;;;;;;;;10.20;99.90;;;;;;5082598;28;20015;-84
2021/05/20 01:44:03;;;;;;;;;;;10.10;99.90;;;;;;5066204;28;19908;-84
2021/05/20 01:46:28;;;;;;;;;;;10.10;99.90;;;;;;5081148;28;19913;-84
2021/05/20 01:48:55;;;;;;;;;;;10.00;99.90;;;;;;5047298;28;19947;-84
2021/05/20 01:51:21;;;;;;;;;;;10.00;99.90;;;;;;5077578;28;20550;-84
2021/05/20 01:53:48;;;;;;;;;;;9.90;99.90;;;;;;5067154;28;19983;-83
2021/05/20 01:56:14;;;;;;;;;;;9.90;99.90;;;;;;5078856;28;19909;-84
2021/05/20 01:58:39;;;;;;;;;;;9.80;99.90;;;;;;5069900;28;20464;-84
2021/05/20 02:01:05;;;;;;;;;;;9.80;99.90;;;;;;5049749;28;19915;-82
2021/05/20 02:03:31;;;;;;;;;;;9.70;99.90;;;;;;5068926;28;20002;-84
2021/05/20 02:05:57;;;;;;;;;;;9.70;99.90;;;;;;5069885;28;19920;-82
2021/05/20 02:08:23;;;;;;;;;;;9.60;99.90;;;;;;5078487;28;19912;-84
2021/05/20 02:10:49;;;;;;;;;;;9.60;99.90;;;;;;5076676;28;19932;-84
2021/05/20 02:13:14;;;;;;;;;;;9.60;99.90;;;;;;5075124;28;19916;-83
2021/05/20 02:15:40;;;;;;;;;;;9.60;99.90;;;;;;5083782;28;19952;-84
2021/05/20 02:18:05;;;;;;;;;;;9.50;99.90;;;;;;5081459;28;19908;-84
2021/05/20 02:20:31;;;;;;;;;;;9.50;99.90;;;;;;5084805;28;19976;-84
2021/05/20 02:22:56;;;;;;;;;;;9.50;99.90;;;;;;5082047;28;19916;-85
2021/05/20 02:25:22;;;;;;;;;;;9.40;99.90;;;;;;5081921;28;19909;-84
2021/05/20 02:27:47;;;;;;;;;;;9.40;99.90;;;;;;5082663;28;19920;-84
2021/05/20 02:30:16;;;;;;;;;;;9.40;99.90;;;;;;5083181;28;19912;-84
2021/05/20 02:32:41;;;;;;;;;;;9.30;99.90;;;;;;5078840;28;19920;-84
2021/05/20 02:35:08;;;;;;;;;;;9.30;99.90;;;;;;5063516;28;20002;-84
2021/05/20 02:37:34;;;;;;;;;;;9.30;99.90;;;;;;5079315;28;20334;-83
2021/05/20 02:39:59;;;;;;;;;;;9.30;99.90;;;;;;5081936;28;19909;-83
2021/05/20 02:42:25;;;;;;;;;;;9.30;99.90;;;;;;5070731;28;19912;-84
2021/05/20 02:44:50;;;;;;;;;;;9.20;99.90;;;;;;5062939;28;19980;-83
2021/05/20 02:47:16;;;;;;;;;;;9.20;99.90;;;;;;5078817;28;19981;-84
2021/05/20 02:49:43;;;;;;;;;;;9.20;99.90;;;;;;5081297;28;19917;-83
2021/05/20 02:52:09;;;;;;;;;;;9.20;99.90;;;;;;5066870;28;20389;-83
2021/05/20 02:54:35;;;;;;;;;;;9.20;99.90;;;;;;5073542;28;19919;-84
2021/05/20 02:57:00;;;;;;;;;;;9.20;99.90;;;;;;5079744;28;19980;-83
2021/05/20 02:59:26;;;;;;;;;;;9.20;99.90;;;;;;5055423;28;19970;-84
2021/05/20 03:01:51;;;;;;;;;;;9.20;99.90;;;;;;5066219;28;19913;-84
2021/05/20 03:04:17;;;;;;;;;;;9.20;99.90;;;;;;5076269;28;19931;-84
2021/05/20 03:06:42;;;;;;;;;;;9.20;99.90;;;;;;5083692;28;19935;-84
2021/05/20 03:09:09;;;;;;;;;;;9.20;99.90;;;;;;5087262;28;19912;-84
2021/05/20 03:11:34;;;;;;;;;;;9.10;99.90;;;;;;5070505;28;19912;-85
2021/05/20 03:14:00;;;;;;;;;;;9.20;99.90;;;;;;5059970;28;20129;-84
2021/05/20 03:16:26;;;;;;;;;;;9.20;99.90;;;;;;5080124;28;19920;-84
2021/05/20 03:18:52;;;;;;;;;;;9.20;99.90;;;;;;5086121;28;19909;-84
2021/05/20 03:21:17;;;;;;;;;;;9.20;99.90;;;;;;5079158;28;19959;-84
2021/05/20 03:23:43;;;;;;;;;;;9.20;99.90;;;;;;5082707;28;19916;-85
2021/05/20 03:26:08;;;;;;;;;;;9.30;99.90;;;;;;5085654;28;19912;-84
2021/05/20 03:28:34;;;;;;;;;;;9.30;99.90;;;;;;5085482;28;19913;-83
2021/05/20 03:30:59;;;;;;;;;;;9.40;99.90;;;;;;5073826;28;20402;-84
2021/05/20 03:33:25;;;;;;;;;;;9.40;99.90;;;;;;5084737;28;19951;-84
2021/05/20 03:35:50;;;;;;;;;;;9.50;99.90;;;;;;5086977;28;19912;-84
2021/05/20 03:38:16;;;;;;;;;;;9.50;99.90;;;;;;5074948;28;19912;-84
2021/05/20 03:40:41;;;;;;;;;;;9.60;99.90;;;;;;5067890;28;19924;-84
2021/05/20 03:43:07;;;;;;;;;;;9.60;99.90;;;;;;5084832;28;20388;-84
2021/05/20 03:45:32;;;;;;;;;;;9.70;99.90;;;;;;5084536;28;19912;-84
2021/05/20 03:47:58;;;;;;;;;;;9.70;99.90;;;;;;5086295;28;19919;-84
2021/05/20 03:50:23;;;;;;;;;;;9.80;99.90;;;;;;5084973;28;19916;-84
2021/05/20 03:52:49;;;;;;;;;;;9.80;99.90;;;;;;5086406;28;19912;-84
2021/05/20 03:55:14;;;;;;;;;;;9.80;99.90;;;;;;5087005;28;19948;-84
2021/05/20 03:57:40;;;;;;;;;;;9.90;99.90;;;;;;5087063;28;19928;-85
2021/05/20 04:00:05;;;;;;;;;;;10.00;99.90;;;;;;5086971;28;19940;-84
2021/05/20 04:02:31;;;;;;;;;;;10.00;99.90;;;;;;5085627;28;19913;-84
2021/05/20 04:04:56;;;;;;;;;;;10.10;99.90;;;;;;5086493;28;19916;-84
2021/05/20 04:07:22;;;;;;;;;;;10.10;99.90;;;;;;5066837;28;19913;-84
2021/05/20 04:09:47;;;;;;;;;;;10.20;99.90;;;;;;5069353;28;19912;-85
2021/05/20 04:12:13;;;;;;;;;;;10.20;99.90;;;;;;5087345;28;19913;-84
2021/05/20 04:14:38;;;;;;;;;;;10.20;99.90;;;;;;5087308;28;19913;-84
2021/05/20 04:17:04;;;;;;;;;;;10.20;99.90;;;;;;5073484;28;19913;-83
2021/05/20 04:19:30;;;;;;;;;;;10.20;99.90;;;;;;5065278;28;19912;-84
2021/05/20 04:21:55;;;;;;;;;;;10.20;99.90;;;;;;5070951;28;19963;-84
2021/05/20 04:24:22;;;;;;;;;;;10.30;99.90;;;;;;5070196;28;19917;-84
2021/05/20 04:26:47;;;;;;;;;;;10.20;99.90;;;;;;5083150;28;19947;-84
2021/05/20 04:29:12;;;;;;;;;;;10.20;99.90;;;;;;5085417;28;19913;-84
2021/05/20 04:31:38;;;;;;;;;;;10.20;99.90;;;;;;5085043;28;19913;-84
2021/05/20 04:34:04;;;;;;;;;;;10.30;99.90;;;;;;5085330;28;19916;-84
2021/05/20 04:36:29;;;;;;;;;;;10.20;99.90;;;;;;5089081;28;19908;-84
2021/05/20 04:38:55;;;;;;;;;;;10.30;99.90;;;;;;5078161;28;19912;-84
2021/05/20 04:41:20;;;;;;;;;;;10.30;99.90;;;;;;5063951;28;20376;-84
2021/05/20 04:43:46;;;;;;;;;;;10.30;99.90;;;;;;5070648;28;19920;-83
2021/05/20 04:46:11;;;;;;;;;;;10.30;99.90;;;;;;5063758;28;19909;-83
2021/05/20 04:48:37;;;;;;;;;;;10.30;99.90;;;;;;5054439;28;19984;-84
2021/05/20 04:51:02;;;;;;;;;;;10.30;99.90;;;;;;5083001;28;19913;-84
2021/05/20 04:53:28;;;;;;;;;;;10.30;99.90;;;;;;5066437;28;19920;-84
2021/05/20 04:55:54;;;;;;;;;;;10.40;99.90;;;;;;5076566;28;19913;-84
2021/05/20 04:58:21;;;;;;;;;;;10.50;99.90;;;;;;5078147;28;19916;-84
2021/05/20 05:00:48;;;;;;;;;;;10.50;99.90;;;;;;5085503;28;19912;-84
2021/05/20 05:03:13;;;;;;;;;;;10.60;99.90;;;;;;5076902;28;19912;-84
2021/05/20 05:05:39;;;;;;;;;;;10.60;99.90;;;;;;5075286;28;19912;-83
2021/05/20 05:08:04;;;;;;;;;;;10.70;99.90;;;;;;5076411;28;19912;-84
2021/05/20 05:10:32;;;;;;;;;;;10.70;99.90;;;;;;5066817;28;19916;-84
2021/05/20 05:12:57;;;;;;;;;;;10.80;99.90;;;;;;5075284;28;19925;-84
2021/05/20 05:15:23;;;;;;;;;;;10.90;99.90;;;;;;5080629;28;19962;-84
2021/05/20 05:17:48;;;;;;;;;;;10.90;99.90;;;;;;5084177;28;19943;-84
2021/05/20 05:20:14;;;;;;;;;;;11.00;99.90;;;;;;5073653;28;19920;-84
2021/05/20 05:22:39;;;;;;;;;;;11.20;99.90;;;;;;5073790;28;19928;-84
2021/05/20 05:25:05;;;;;;;;;;;11.30;99.90;;;;;;5072262;28;19916;-85
2021/05/20 05:27:31;;;;;;;;;;;11.30;99.90;;;;;;5078154;28;19913;-84
2021/05/20 05:29:56;;;;;;;;;;;11.50;99.90;;;;;;5058317;28;19912;-84
2021/05/20 05:32:23;;;;;;;;;;;11.50;99.90;;;;;;5064206;28;20324;-83
2021/05/20 05:34:48;;;;;;;;;;;11.60;99.90;;;;;;5063776;28;19923;-84
2021/05/20 05:37:14;;;;;;;;;;;11.60;99.90;;;;;;5071839;28;19944;-84
2021/05/20 05:39:42;;;;;;;;;;;11.70;99.90;;;;;;5067126;28;20023;-84
2021/05/20 05:42:07;;;;;;;;;;;11.70;99.90;;;;;;5079939;28;19944;-83
2021/05/20 05:44:33;;;;;;;;;;;11.80;99.90;;;;;;5065740;28;19913;-84
2021/05/20 05:46:58;;;;;;;;;;;11.90;99.90;;;;;;5060306;28;20000;-84
2021/05/20 05:49:28;;;;;;;;;;;12.00;99.90;;;;;;5070444;28;19968;-84
2021/05/20 05:52:03;;;;;;;;;;;12.10;99.90;;;;;;5047060;28;19913;-84
2021/05/20 05:54:32;;;;;;;;;;;12.20;99.90;;;;;;5076026;28;20391;-84
2021/05/20 05:56:57;;;;;;;;;;;12.20;99.90;;;;;;5073382;28;19916;-84
2021/05/20 05:59:23;;;;;;;;;;;12.20;99.90;;;;;;5064110;28;20454;-84
2021/05/20 06:01:48;;;;;;;;;;;12.20;99.90;;;;;;5077065;28;19913;-84
2021/05/20 06:04:17;;;;;;;;;;;12.20;99.90;;;;;;5051648;28;19923;-84
2021/05/20 06:06:43;;;;;;;;;;;12.30;99.90;;;;;;5077049;28;19952;-84
2021/05/20 06:09:09;;;;;;;;;;;12.30;99.90;;;;;;5067268;28;19912;-84
2021/05/20 06:11:35;;;;;;;;;;;12.40;99.90;;;;;;5058218;28;19909;-84
2021/05/20 06:14:05;;;;;;;;;;;12.50;99.90;;;;;;5067521;28;19963;-84
2021/05/20 06:16:34;;;;;;;;;;;12.60;99.90;;;;;;5076320;28;19919;-84
2021/05/20 06:19:00;;;;;;;;;;;12.70;99.90;;;;;;5063908;28;19924;-84
2021/05/20 06:21:25;;;;;;;;;;;12.90;99.90;;;;;;5080972;28;20300;-84
2021/05/20 06:23:58;;;;;;;;;;;13.10;99.90;;;;;;5064551;28;19930;-84
2021/05/20 06:26:24;;;;;;;;;;;13.10;99.90;;;;;;5057428;28;19919;-85
2021/05/20 06:28:50;;;;;;;;;;;13.20;99.90;;;;;;5072599;28;19920;-83
2021/05/20 06:31:15;;;;;;;;;;;13.30;99.90;;;;;;5066761;28;20399;-83
2021/05/20 06:33:40;;;;;;;;;;;13.50;99.90;;;;;;5064302;28;19938;-84
2021/05/20 06:36:07;;;;;;;;;;;13.70;99.90;;;;;;5067486;28;19912;-85
2021/05/20 06:38:32;;;;;;;;;;;13.90;99.90;;;;;;5053504;28;19913;-84
2021/05/20 06:40:59;;;;;;;;;;;14.20;99.90;;;;;;5064297;28;19920;-83
2021/05/20 06:43:24;;;;;;;;;;;14.20;99.90;;;;;;5064816;28;20292;-84
2021/05/20 06:45:50;;;;;;;;;;;14.30;99.90;;;;;;5063539;28;19927;-85
2021/05/20 06:48:16;;;;;;;;;;;14.70;99.90;;;;;;5063296;28;20365;-85
2021/05/20 06:50:41;;;;;;;;;;;16.20;99.90;;;;;;5082747;28;19913;-84
2021/05/20 06:53:07;;;;;;;;;;;16.60;99.90;;;;;;5082990;28;19919;-84
2021/05/20 06:55:33;;;;;;;;;;;16.90;99.90;;;;;;5072529;28;19970;-84
2021/05/20 07:00:30;;;;;;;;;;;17.10;99.90;;;;;;5079153;28;19947;-84
2021/05/20 07:02:55;;;;;;;;;;;16.70;99.90;;;;;;5054376;28;19913;-85
2021/05/20 07:05:21;;;;;;;;;;;16.40;99.90;;;;;;5071514;28;19916;-82
2021/05/20 07:07:47;;;;;;;;;;;16.20;99.90;;;;;;5070178;28;19919;-84
2021/05/20 07:10:12;;;;;;;;;;;16.20;99.90;;;;;;5063780;28;19919;-84
2021/05/20 07:12:38;;;;;;;;;;;24.30;99.90;;;;;;5067859;28;19935;-83
2021/05/20 07:15:04;;;;;;;;;;;30.70;81.80;;;;;;5087676;22;20015;-78
2021/05/20 07:17:30;;;;;;;;;;;31.70;63.80;;;;;;5074528;28;19956;-78
2021/05/20 07:19:55;;;;;;;;;;;31.70;61.60;;;;;;5080810;28;19927;-80
2021/05/20 07:22:21;;;;;;;;;;;29.40;64.40;;;;;;5074377;28;19912;-80
2021/05/20 07:24:46;;;;;;;;;;;27.40;69.50;;;;;;5076622;28;20265;-80
2021/05/20 07:27:12;;;;;;;;;;;28.00;68.40;;;;;;5074573;28;19920;-79
2021/05/20 07:29:38;;;;;;;;;;;26.00;71.10;;;;;;5073917;28;19920;-80
2021/05/20 07:32:04;;;;;;;;;;;25.30;73.90;;;;;;5073413;28;19986;-80
2021/05/20 07:34:32;;;;;;;;;;;28.60;73.00;;;;;;5077768;28;19920;-80
2021/05/20 07:36:58;;;;;;;;;;;29.70;66.10;;;;;;5078811;28;19944;-80
2021/05/20 07:39:23;;;;;;;;;;;27.70;67.10;;;;;;5073014;28;19964;-80
2021/05/20 07:41:49;;;;;;;;;;;25.30;69.70;;;;;;5071631;28;19913;-80
2021/05/20 07:44:14;;;;;;;;;;;24.60;74.30;;;;;;5070361;28;19920;-80
2021/05/20 07:46:40;;;;;;;;;;;27.10;72.10;;;;;;5079334;28;20015;-80
2021/05/20 07:49:05;;;;;;;;;;;25.70;69.10;;;;;;5077409;28;19920;-80
2021/05/20 07:51:33;;;;;;;;;;;25.50;72.00;;;;;;5076307;28;19913;-80
2021/05/20 07:53:59;;;;;;;;;;;25.20;69.80;;;;;;5076990;28;19923;-80
2021/05/20 07:56:24;;;;;;;;;;;28.10;66.80;;;;;;5078163;28;19913;-80
2021/05/20 07:58:53;;;;;;;;;;;30.50;63.70;;;;;;5070878;28;20297;-80
2021/05/20 08:01:19;;;;;;;;;;;33.00;57.30;;;;;;5065184;28;19912;-80
2021/05/20 08:03:55;;;;;;;;;;;34.10;54.90;;;;;;5076553;28;19912;-81
2021/05/20 08:06:31;;;;;;;;;;;31.80;55.90;;;;;;5070129;28;19916;-81
2021/05/20 08:09:15;;;;;;;;;;;33.90;55.70;;;;;;5072185;28;19988;-81
2021/05/20 08:11:40;;;;;;;;;;;33.80;53.80;;;;;;5074792;28;20109;-81
2021/05/20 08:14:06;;;;;;;;;;;34.50;52.70;;;;;;5080182;28;19960;-81
2021/05/20 08:16:32;;;;;;;;;;;33.00;54.00;;;;;;5074877;28;19916;-81
2021/05/20 08:18:59;;;;;;;;;;;31.50;55.00;;;;;;5078920;28;19919;-81
2021/05/20 08:21:27;;;;;;;;;;;30.40;55.40;;;;;;5077010;28;19912;-81
2021/05/20 08:23:52;;;;;;;;;;;30.20;57.50;;;;;;5075210;28;19913;-81
2021/05/20 08:26:19;;;;;;;;;;;33.70;54.00;;;;;;5080360;28;19942;-82
2021/05/20 08:28:45;;;;;;;;;;;35.30;52.00;;;;;;5065504;28;19924;-81
2021/05/20 08:31:10;;;;;;;;;;;38.20;49.80;;;;;;5078270;28;19947;-79
2021/05/20 08:33:38;;;;;;;;;;;40.30;47.60;;;;;;5073945;28;19917;-79
2021/05/20 08:36:04;;;;;;;;;;;41.50;45.40;;;;;;5073723;28;19912;-79
2021/05/20 08:38:42;;;;;;;;;;;;;;;;;;;;;
2021/05/20 08:41:08;;;;;;;;;;;42.40;43.60;;;;;;5077039;28;20011;-79
2021/05/20 08:43:33;;;;;;;;;;;43.50;42.50;;;;;;5071157;28;19967;-79
2021/05/20 08:45:59;;;;;;;;;;;42.40;41.60;;;;;;5073088;28;19908;-81
2021/05/20 08:48:25;;;;;;;;;;;42.00;43.20;;;;;;5074571;28;19972;-81
2021/05/20 08:50:54;;;;;;;;;;;43.20;42.20;;;;;;5075859;28;19916;-81
2021/05/20 08:53:19;;;;;;;;;;;44.20;41.40;;;;;;5080309;28;19956;-82
2021/05/20 08:55:45;;;;;;;;;;;44.90;40.60;;;;;;5074991;28;19917;-81
2021/05/20 08:58:11;;;;;;;;;;;44.10;40.70;;;;;;5080303;28;20249;-81
2021/05/20 09:00:37;;;;;;;;;;;43.20;40.80;;;;;;5081748;28;19912;-80
2021/05/20 09:03:15;;;;;;;;;;;41.60;42.50;;;;;;5069606;28;20008;-82
2021/05/20 09:05:42;;;;;;;;;;;42.50;42.00;;;;;;5078420;28;20267;-81
2021/05/20 09:08:13;;;;;;;;;;;43.20;40.70;;;;;;5070942;28;19947;-81
2021/05/20 09:10:39;;;;;;;;;;;43.80;40.00;;;;;;5098603;28;19913;-81
2021/05/20 09:13:09;;;;;;;;;;;44.20;39.50;;;;;;5075844;28;19919;-81
2021/05/20 09:15:38;;;;;;;;;;;44.20;38.80;;;;;;5077509;28;19928;-80
2021/05/20 09:18:06;;;;;;;;;;;43.90;39.00;;;;;;5072816;28;19920;-78
2021/05/20 09:20:32;;;;;;;;;;;44.00;39.00;;;;;;5078816;28;19912;-79
2021/05/20 09:23:10;;;;;;;;;;;44.30;38.80;;;;;;5079460;28;19916;-79
2021/05/20 09:25:36;;;;;;;;;;;44.70;38.40;;;;;;5082113;28;19947;-79
2021/05/20 09:28:03;;;;;;;;;;;45.10;38.20;;;;;;5075262;28;19913;-79
2021/05/20 09:30:29;;;;;;;;;;;45.30;37.80;;;;;;5077729;28;19943;-79
2021/05/20 09:32:56;;;;;;;;;;;45.30;37.60;;;;;;5073793;28;19920;-78
2021/05/20 09:35:23;;;;;;;;;;;45.30;37.60;;;;;;5061437;28;19938;-79
2021/05/20 09:38:01;;;;;;;;;;;44.80;37.60;;;;;;5072550;28;19991;-78
2021/05/20 09:40:37;;;;;;;;;;;43.20;37.70;;;;;;5066976;28;19920;-78
2021/05/20 09:43:14;;;;;;;;;;;42.10;38.90;;;;;;5072630;28;19995;-79
2021/05/20 09:45:40;;;;;;;;;;;42.40;38.40;;;;;;5064024;28;19937;-79
2021/05/20 09:48:07;;;;;;;;;;;42.70;38.30;;;;;;5069638;28;20323;-78
2021/05/20 09:50:37;;;;;;;;;;;41.30;38.30;;;;;;5073291;28;20014;-78
2021/05/20 09:53:06;;;;;;;;;;;40.60;39.00;;;;;;5068136;28;19916;-78
2021/05/20 09:55:32;;;;;;;;;;;40.50;39.50;;;;;;5077073;28;19920;-78
2021/05/20 09:58:08;;;;;;;;;;;40.60;39.10;;;;;;5072583;28;19913;-78
2021/05/20 10:00:34;;;;;;;;;;;40.80;39.00;;;;;;5062928;28;20015;-78
2021/05/20 10:03:04;;;;;;;;;;;40.10;39.40;;;;;;5070932;28;20407;-78
2021/05/20 10:05:48;;;;;;;;;;;40.30;39.10;;;;;;5073265;28;19912;-79
2021/05/20 10:08:15;;;;;;;;;;;40.40;38.80;;;;;;5076460;28;19913;-79
2021/05/20 10:10:42;;;;;;;;;;;40.50;38.50;;;;;;5069809;28;21611;-79
2021/05/20 10:13:08;;;;;;;;;;;40.60;38.40;;;;;;5068202;28;20382;-79
2021/05/20 10:15:35;;;;;;;;;;;40.60;38.30;;;;;;5062705;28;19917;-79
2021/05/20 10:18:04;;;;;;;;;;;40.10;38.30;;;;;;5055987;28;19963;-79
2021/05/20 10:20:30;;;;;;;;;;;38.20;39.10;;;;;;5081603;28;19916;-79
2021/05/20 10:22:56;;;;;;;;;;;37.70;39.50;;;;;;5084148;28;20277;-79
2021/05/20 10:25:23;;;;;;;;;;;37.90;39.70;;;;;;5069038;28;20454;-78
2021/05/20 10:27:49;;;;;;;;;;;36.90;39.30;;;;;;5076027;28;20368;-78
2021/05/20 10:30:15;;;;;;;;;;;35.70;40.40;;;;;;5062645;28;20375;-78
2021/05/20 10:32:43;;;;;;;;;;;35.20;40.50;;;;;;5075917;28;20549;-79
2021/05/20 10:35:10;;;;;;;;;;;36.80;40.00;;;;;;5063121;28;19999;-78
2021/05/20 10:37:39;;;;;;;;;;;38.50;38.80;;;;;;5066094;28;20352;-78
2021/05/20 10:40:07;;;;;;;;;;;39.90;37.50;;;;;;5064584;28;19923;-78
2021/05/20 10:42:33;;;;;;;;;;;40.10;36.80;;;;;;5073677;28;19966;-79
2021/05/20 10:45:18;;;;;;;;;;;40.80;36.50;;;;;;5078897;28;19919;-79
2021/05/20 10:48:02;;;;;;;;;;;41.10;36.20;;;;;;5065838;28;20023;-79
2021/05/20 10:50:46;;;;;;;;;;;41.00;36.10;;;;;;5065321;28;19916;-78
2021/05/20 10:53:31;;;;;;;;;;;38.50;36.90;;;;;;5065191;28;19912;-79
2021/05/20 10:55:57;;;;;;;;;;;38.30;37.40;;;;;;5072637;28;19912;-79
2021/05/20 10:58:31;;;;;;;;;;;38.60;37.10;;;;;;5071419;28;20346;-78
2021/05/20 11:00:57;;;;;;;;;;;39.20;36.50;;;;;;5070310;28;19912;-79
2021/05/20 11:03:52;;;;;;;;;;;39.40;36.10;;;;;;5069421;28;20075;-79
2021/05/20 11:06:18;;;;;;;;;;;38.90;35.90;;;;;;5058213;28;19940;-79
2021/05/20 11:08:47;;;;;;;;;;;38.80;35.80;;;;;;5073303;28;20369;-79
2021/05/20 11:11:31;;;;;;;;;;;37.70;35.70;;;;;;5076149;28;20372;-79
2021/05/20 11:14:00;;;;;;;;;;;37.70;35.90;;;;;;5073450;28;19920;-77
2021/05/20 11:16:28;;;;;;;;;;;36.10;36.00;;;;;;5062434;28;20395;-78
2021/05/20 11:19:14;;;;;;;;;;;34.80;36.80;;;;;;5057293;28;19908;-78
2021/05/20 11:21:55;;;;;;;;;;;33.40;36.90;;;;;;5069451;28;19916;-78
2021/05/20 11:24:20;;;;;;;;;;;32.90;37.70;;;;;;5067290;28;19966;-78
2021/05/20 11:26:50;;;;;;;;;;;33.30;37.40;;;;;;5076540;28;19916;-79
2021/05/20 11:29:16;;;;;;;;;;;32.80;37.00;;;;;;5073860;28;20368;-79
2021/05/20 11:31:42;;;;;;;;;;;32.80;36.90;;;;;;5073925;28;19938;-80
2021/05/20 11:36:55;;;;;;;;;;;33.10;36.10;;;;;;5055384;28;20017;-80
2021/05/20 11:39:21;;;;;;;;;;;32.90;36.40;;;;;;5074373;28;19938;-79
2021/05/20 11:41:47;;;;;;;;;;;33.50;36.00;;;;;;5074013;28;20386;-79
2021/05/20 11:44:20;;;;;;;;;;;34.10;35.50;;;;;;5079690;28;19913;-79
2021/05/20 11:46:47;;;;;;;;;;;34.00;34.80;;;;;;5078651;28;20029;-79
2021/05/20 11:49:23;;;;;;;;;;;33.60;35.10;;;;;;5078130;28;19952;-80
2021/05/20 11:51:54;;;;;;;;;;;34.00;35.30;;;;;;5086780;28;20372;-79
2021/05/20 11:54:21;;;;;;;;;;;34.30;35.00;;;;;;5067067;28;19955;-79
2021/05/20 11:56:52;;;;;;;;;;;33.00;35.20;;;;;;5062567;28;20228;-79
2021/05/20 11:59:38;;;;;;;;;;;32.60;35.60;;;;;;5077657;28;19919;-79
2021/05/20 12:02:04;;;;;;;;;;;32.50;35.50;;;;;;5052486;28;19927;-79
2021/05/20 12:04:32;;;;;;;;;;;31.80;35.80;;;;;;5058276;28;20007;-79
2021/05/20 12:06:59;;;;;;;;;;;32.00;35.60;;;;;;5060704;28;19973;-79
2021/05/20 12:09:24;;;;;;;;;;;31.50;35.60;;;;;;5059422;28;19908;-79
2021/05/20 12:11:50;;;;;;;;;;;31.50;35.80;;;;;;5061524;28;19909;-79
2021/05/20 12:14:26;;;;;;;;;;;31.50;35.50;;;;;;5077752;28;19916;-79
2021/05/20 12:16:58;;;;;;;;;;;31.30;35.40;;;;;;5077733;28;20515;-79
2021/05/20 12:19:24;;;;;;;;;;;31.10;35.40;;;;;;5075758;28;19934;-79
2021/05/20 12:21:59;;;;;;;;;;;30.90;36.00;;;;;;5077929;28;19913;-79
2021/05/20 12:24:29;;;;;;;;;;;30.80;35.60;;;;;;5076167;28;19912;-79
2021/05/20 12:26:54;;;;;;;;;;;30.90;35.50;;;;;;5075285;28;19916;-79
2021/05/20 12:29:20;;;;;;;;;;;30.60;35.40;;;;;;5077975;28;19914;-79
2021/05/20 12:31:46;;;;;;;;;;;30.20;35.70;;;;;;5072197;28;19919;-79
2021/05/20 12:34:15;;;;;;;;;;;30.20;35.70;;;;;;5078686;28;19913;-79
2021/05/20 12:36:40;;;;;;;;;;;29.90;35.70;;;;;;5076341;28;19916;-79
2021/05/20 12:39:11;;;;;;;;;;;29.60;35.80;;;;;;5062877;28;20007;-79
2021/05/20 12:41:37;;;;;;;;;;;29.30;36.00;;;;;;5064459;28;19913;-79
2021/05/20 12:44:13;;;;;;;;;;;29.30;36.20;;;;;;5075567;28;19946;-79
2021/05/20 12:46:38;;;;;;;;;;;29.40;36.20;;;;;;5066023;28;20376;-79
2021/05/20 12:49:04;;;;;;;;;;;29.40;36.20;;;;;;5062557;28;19920;-79
2021/05/20 12:51:29;;;;;;;;;;;29.20;36.10;;;;;;5077073;28;19923;-79
2021/05/20 12:53:59;;;;;;;;;;;29.00;36.10;;;;;;5073553;28;19913;-79
2021/05/20 12:56:32;;;;;;;;;;;28.90;36.20;;;;;;5057336;28;20000;-79
2021/05/20 12:59:12;;;;;;;;;;;28.70;36.10;;;;;;5065536;28;19987;-79
2021/05/20 13:01:43;;;;;;;;;;;28.50;36.10;;;;;;5067210;28;20007;-77
2021/05/20 13:04:09;;;;;;;;;;;28.40;36.30;;;;;;5056920;28;20297;-79
2021/05/20 13:06:35;;;;;;;;;;;28.40;36.30;;;;;;5060810;28;19920;-80
2021/05/20 13:09:05;;;;;;;;;;;28.30;36.40;;;;;;5058893;28;19909;-79
2021/05/20 13:11:33;;;;;;;;;;;28.20;36.40;;;;;;5058414;28;19913;-79
2021/05/20 13:24:55;;;;;;;;;;;27.30;36.50;;;;;;5064236;28;20007;-79
2021/05/20 13:27:21;;;;;;;;;;;27.30;36.60;;;;;;5077915;28;19908;-79
2021/05/20 13:29:55;;;;;;;;;;;27.20;36.50;;;;;;5076357;28;19920;-79
2021/05/20 13:34:52;;;;;;;;;;;27.10;36.50;;;;;;5056403;28;19966;-79
2021/05/20 13:37:18;;;;;;;;;;;27.20;36.60;;;;;;5063189;28;19913;-78
2021/05/20 13:39:43;;;;;;;;;;;27.30;36.60;;;;;;5062041;28;20526;-79
2021/05/20 13:42:09;;;;;;;;;;;27.40;36.60;;;;;;5055539;28;19913;-79
2021/05/20 13:44:43;;;;;;;;;;;27.40;36.50;;;;;;5069694;28;19916;-79
2021/05/20 13:47:08;;;;;;;;;;;27.50;36.60;;;;;;5067116;28;19920;-79
2021/05/20 13:49:39;;;;;;;;;;;27.40;36.50;;;;;;5058667;28;19909;-79
2021/05/20 13:52:05;;;;;;;;;;;27.30;36.50;;;;;;5063798;28;19920;-79
2021/05/20 13:54:31;;;;;;;;;;;27.20;36.50;;;;;;5056090;28;19962;-79
2021/05/20 13:56:59;;;;;;;;;;;27.00;36.60;;;;;;5055680;28;19963;-79
2021/05/20 13:59:24;;;;;;;;;;;26.90;36.70;;;;;;5056774;28;19913;-79
2021/05/20 14:01:50;;;;;;;;;;;26.80;36.70;;;;;;5062883;28;19948;-79
2021/05/20 14:04:24;;;;;;;;;;;26.60;36.70;;;;;;5076002;28;19919;-79
2021/05/20 14:06:49;;;;;;;;;;;26.40;36.80;;;;;;5068078;28;19966;-79
2021/05/20 14:09:15;;;;;;;;;;;26.10;36.70;;;;;;5062324;28;19921;-79
2021/05/20 14:11:40;;;;;;;;;;;25.80;36.80;;;;;;5071258;28;19921;-79
2021/05/20 14:14:06;;;;;;;;;;;25.50;36.90;;;;;;5074258;28;19962;-80
2021/05/20 14:16:31;;;;;;;;;;;25.30;37.20;;;;;;5069663;28;20003;-79
2021/05/20 14:18:57;;;;;;;;;;;24.90;38.00;;;;;;5074058;28;20364;-79
2021/05/20 14:21:24;;;;;;;;;;;24.50;37.50;;;;;;5065869;28;19913;-79
2021/05/20 14:23:49;;;;;;;;;;;24.40;37.60;;;;;;5059603;28;20008;-79
2021/05/20 14:26:15;;;;;;;;;;;24.50;37.60;;;;;;5076504;28;19977;-79
2021/05/20 14:28:40;;;;;;;;;;;24.50;37.50;;;;;;5076626;28;19912;-79
2021/05/20 14:31:06;;;;;;;;;;;24.50;37.40;;;;;;5078600;28;19909;-80
2021/05/20 14:33:40;;;;;;;;;;;24.40;37.30;;;;;;5076453;28;20389;-80
2021/05/20 14:36:07;;;;;;;;;;;24.30;37.20;;;;;;5077896;28;20384;-80
2021/05/20 14:38:32;;;;;;;;;;;24.10;37.20;;;;;;5077684;28;19912;-80
2021/05/20 14:40:58;;;;;;;;;;;23.80;37.20;;;;;;5057957;28;20365;-80
2021/05/20 14:43:23;;;;;;;;;;;23.70;37.30;;;;;;5060871;28;19916;-79
2021/05/20 14:45:49;;;;;;;;;;;23.60;37.50;;;;;;5073867;28;19913;-79
2021/05/20 14:48:15;;;;;;;;;;;23.40;37.30;;;;;;5092372;28;19920;-79
2021/05/20 14:50:49;;;;;;;;;;;23.30;37.40;;;;;;5075228;28;19912;-79
2021/05/20 14:53:21;;;;;;;;;;;23.20;37.40;;;;;;5076898;28;19966;-79